Time;durP1;ratioP1;P1;durP2;ratioP2;P2;SDS_P1;SDS_P2;PMS_P1;PMS_P2;Temp;Humidity;BMP_temperature;BMP_pressure;BME280_temperature;BME280_humidity;BME280_pressure;Samples;Min_cycle;Max_cycle;Signal;HPM_P1;HPM_P2
2022/07/19 00:00:48;;;;;;;8.10;5.07;;;;;;;23.84;46.53;101764.53;5010204;28;115722;-84
2022/07/19 00:03:16;;;;;;;10.18;5.53;;;;;;;23.79;46.68;101757.81;4994610;28;123298;-84
2022/07/19 00:05:44;;;;;;;10.23;5.45;;;;;;;23.74;46.79;101751.94;4993437;28;122965;-84
2022/07/19 00:08:11;;;;;;;9.43;5.63;;;;;;;23.71;46.64;101758.44;4991039;28;113836;-84
2022/07/19 00:10:38;;;;;;;9.57;5.15;;;;;;;23.66;46.86;101755.28;5011319;28;113915;-84
2022/07/19 00:13:05;;;;;;;7.18;5.18;;;;;;;23.63;46.96;101755.56;5009939;28;122987;-84
2022/07/19 00:15:32;;;;;;;8.02;5.25;;;;;;;23.61;46.97;101757.53;4994405;28;123117;-84
2022/07/19 00:18:00;;;;;;;8.50;6.28;;;;;;;23.59;47.01;101759.50;4992595;28;114485;-84
2022/07/19 00:20:27;;;;;;;9.48;5.78;;;;;;;23.57;47.22;101766.91;5012147;28;115646;-84
2022/07/19 00:22:54;;;;;;;9.00;5.95;;;;;;;23.54;47.08;101761.75;5011212;28;124270;-85
2022/07/19 00:25:21;;;;;;;9.48;6.10;;;;;;;23.49;47.26;101754.03;4993087;28;123414;-84
2022/07/19 00:27:48;;;;;;;8.55;5.85;;;;;;;23.47;47.28;101761.41;5010343;28;112658;-85
2022/07/19 00:30:15;;;;;;;9.48;5.47;;;;;;;23.44;47.06;101751.72;4992292;28;113612;-84
2022/07/19 00:32:43;;;;;;;9.10;6.00;;;;;;;23.39;47.47;101753.94;5004176;28;123203;-85
2022/07/19 00:35:10;;;;;;;10.98;6.35;;;;;;;23.36;47.46;101748.81;4991349;28;123233;-85
2022/07/19 00:37:37;;;;;;;13.60;7.15;;;;;;;23.34;48.06;101750.78;5009185;28;114869;-85
2022/07/19 00:40:13;;;;;;;8.73;5.95;;;;;;;23.29;47.88;101740.34;5009161;28;113197;-85
2022/07/19 00:42:40;;;;;;;10.82;6.72;;;;;;;23.27;48.02;101741.50;4973552;28;123313;-84
2022/07/19 00:45:08;;;;;;;7.70;6.25;;;;;;;23.24;47.93;101741.72;4989456;28;123373;-85
2022/07/19 00:47:35;;;;;;;10.77;5.93;;;;;;;23.22;48.03;101741.00;5007411;28;113984;-84
2022/07/19 00:50:03;;;;;;;9.18;5.57;;;;;;;23.19;48.13;101735.84;5008678;28;113962;-84
2022/07/19 00:52:32;;;;;;;14.30;6.15;;;;;;;23.16;48.20;101736.13;4989731;28;124351;-84
2022/07/19 00:55:00;;;;;;;10.63;5.88;;;;;;;23.12;48.19;101740.94;4988949;28;121654;-85
2022/07/19 00:57:29;;;;;;;10.63;6.28;;;;;;;23.06;48.33;101736.91;5005420;28;113505;-85
2022/07/19 00:59:57;;;;;;;10.82;6.55;;;;;;;23.04;48.42;101728.06;5007397;28;112939;-85
2022/07/19 01:02:25;;;;;;;9.00;6.18;;;;;;;23.02;48.55;101730.00;5006282;28;123573;-84
2022/07/19 01:04:52;;;;;;;10.23;6.18;;;;;;;23.01;48.56;101728.28;5006382;28;123867;-85
2022/07/19 01:07:23;;;;;;;9.13;6.13;;;;;;;22.99;48.40;101732.97;4990388;28;115077;-85
2022/07/19 01:09:51;;;;;;;8.00;5.93;;;;;;;22.98;48.28;101728.56;4987489;28;113324;-85
2022/07/19 01:12:20;;;;;;;9.55;6.22;;;;;;;22.96;48.39;101727.81;5004070;28;122453;-85
2022/07/19 01:14:47;;;;;;;9.23;5.97;;;;;;;22.93;48.50;101725.38;4974711;28;122886;-85
2022/07/19 01:17:14;;;;;;;12.30;6.38;;;;;;;22.92;48.53;101723.66;4991967;28;113677;-85
2022/07/19 01:19:43;;;;;;;11.38;6.00;;;;;;;22.90;48.97;101728.31;4992100;28;113494;-85
2022/07/19 01:22:10;;;;;;;9.35;6.10;;;;;;;22.90;48.62;101731.03;4992687;28;124088;-84
2022/07/19 01:24:37;;;;;;;8.10;6.10;;;;;;;22.86;48.71;101730.41;4992466;28;123643;-84
2022/07/19 01:27:05;;;;;;;10.10;6.03;;;;;;;22.83;48.51;101724.41;5008375;28;113132;-84
2022/07/19 01:29:35;;;;;;;10.35;6.00;;;;;;;22.79;48.63;101733.75;4974323;28;113412;-84
2022/07/19 01:32:03;;;;;;;9.65;6.47;;;;;;;22.76;48.67;101728.63;4989983;28;123785;-84
2022/07/19 01:34:31;;;;;;;8.10;6.00;;;;;;;22.73;48.72;101735.13;5007294;28;123084;-84
2022/07/19 01:36:58;;;;;;;8.45;5.70;;;;;;;22.68;48.73;101732.81;4991631;28;113838;-85
2022/07/19 01:39:25;;;;;;;12.13;6.25;;;;;;;22.64;48.95;101730.47;5007112;28;113638;-84
2022/07/19 01:41:53;;;;;;;7.72;6.00;;;;;;;22.59;48.93;101733.56;5011871;28;124012;-85
2022/07/19 01:44:20;;;;;;;10.52;5.75;;;;;;;22.52;48.91;101737.75;5009741;28;123663;-85
2022/07/19 01:46:47;;;;;;;8.60;5.88;;;;;;;22.47;49.18;101734.56;5002932;28;121073;-85
2022/07/19 01:49:14;;;;;;;10.20;6.03;;;;;;;22.44;49.26;101735.69;4989472;28;119466;-85
2022/07/19 01:51:41;;;;;;;12.98;6.32;;;;;;;22.40;49.38;101722.56;5008459;28;123967;-85
2022/07/19 01:54:08;;;;;;;8.25;6.15;;;;;;;22.38;49.27;101735.31;4988926;28;123548;-85
2022/07/19 01:56:35;;;;;;;8.68;6.57;;;;;;;22.35;49.67;101725.63;4974179;28;118046;-84
2022/07/19 01:59:02;;;;;;;11.93;6.30;;;;;;;22.32;49.46;101721.34;4988605;28;118650;-85
2022/07/19 02:01:29;;;;;;;9.45;6.53;;;;;;;22.32;49.78;101725.88;4991731;28;124441;-85
2022/07/19 02:03:56;;;;;;;10.73;6.43;;;;;;;22.31;49.58;101725.00;5001859;28;123894;-84
2022/07/19 02:06:24;;;;;;;10.25;6.70;;;;;;;22.31;49.98;101730.41;4972662;28;118193;-85
2022/07/19 02:08:51;;;;;;;10.85;6.35;;;;;;;22.30;49.72;101723.31;5007214;28;118907;-85
2022/07/19 02:11:36;;;;;;;10.35;6.25;;;;;;;22.29;49.77;101726.13;4974567;28;124098;-84
2022/07/19 02:14:04;;;;;;;8.40;5.75;;;;;;;22.24;49.75;101723.75;4989709;28;123001;-83
2022/07/19 02:16:32;;;;;;;8.82;6.57;;;;;;;22.20;49.79;101727.69;4999742;28;118471;-83
2022/07/19 02:18:59;;;;;;;12.30;6.03;;;;;;;22.18;49.77;101724.25;4988951;28;118312;-83
2022/07/19 02:21:26;;;;;;;10.40;5.88;;;;;;;22.17;49.83;101722.56;4988338;28;124732;-83
2022/07/19 02:23:53;;;;;;;8.13;5.53;;;;;;;22.15;49.69;101713.69;4990755;28;121822;-83
2022/07/19 02:26:21;;;;;;;7.53;5.80;;;;;;;22.13;49.73;101712.97;4999449;28;119272;-83
2022/07/19 02:28:48;;;;;;;8.75;5.85;;;;;;;22.11;49.63;101709.53;5006422;28;119809;-85
2022/07/19 02:31:15;;;;;;;6.43;5.47;;;;;;;22.08;49.83;101712.50;4973087;28;123542;-85
2022/07/19 02:33:43;;;;;;;6.13;5.13;;;;;;;22.07;49.78;101710.75;4991481;28;123868;-85
2022/07/19 02:36:10;;;;;;;8.02;5.88;;;;;;;22.05;49.92;101718.13;5000641;28;118595;-85
2022/07/19 02:38:38;;;;;;;9.35;5.78;;;;;;;22.02;49.84;101713.84;4990254;28;118500;-84
2022/07/19 02:41:05;;;;;;;7.47;5.53;;;;;;;22.00;49.76;101707.72;4995089;28;123531;-85
2022/07/19 02:43:32;;;;;;;7.10;5.70;;;;;;;21.95;49.83;101701.81;5007887;28;124691;-86
2022/07/19 02:45:59;;;;;;;8.10;5.70;;;;;;;21.90;49.90;101710.25;5022563;28;119451;-88
2022/07/19 02:48:26;;;;;;;8.40;6.25;;;;;;;21.87;50.10;101699.75;4996910;28;119478;-87
2022/07/19 02:50:54;;;;;;;8.70;5.72;;;;;;;21.86;50.12;101706.09;5005081;28;122794;-85
2022/07/19 02:53:21;;;;;;;7.78;6.00;;;;;;;21.85;50.25;101701.69;5001233;28;121997;-85
2022/07/19 02:55:48;;;;;;;8.90;5.82;;;;;;;21.84;50.22;101702.66;4993241;28;119196;-85
2022/07/19 02:58:15;;;;;;;9.70;6.07;;;;;;;21.81;50.13;101702.91;4973524;28;118089;-85
2022/07/19 03:00:43;;;;;;;10.27;5.45;;;;;;;21.77;50.24;101693.34;4976618;28;123044;-84
2022/07/19 03:05:56;;;;;;;8.88;6.22;;;;;;;21.73;50.52;101702.66;4989055;28;119404;-85
2022/07/19 03:08:23;;;;;;;7.32;6.18;;;;;;;21.72;50.36;101700.97;4996746;28;117565;-85
2022/07/19 03:10:51;;;;;;;16.02;6.25;;;;;;;21.70;50.52;101698.38;4978768;28;123063;-84
2022/07/19 03:13:18;;;;;;;12.27;6.25;;;;;;;21.67;50.45;101687.81;4970565;28;124134;-85
2022/07/19 03:15:45;;;;;;;17.63;6.70;;;;;;;21.65;50.79;101697.03;4966077;28;119030;-86
2022/07/19 03:18:12;;;;;;;8.18;5.97;;;;;;;21.62;50.93;101692.69;4991714;28;118452;-87
2022/07/19 03:20:39;;;;;;;11.20;6.38;;;;;;;21.63;51.00;101690.88;5021155;28;123234;-87
2022/07/19 03:23:07;;;;;;;9.00;6.13;;;;;;;21.62;50.74;101683.75;5017127;28;123266;-87
2022/07/19 03:25:34;;;;;;;9.50;6.05;;;;;;;21.63;50.84;101685.50;4993603;28;118408;-87
2022/07/19 03:28:02;;;;;;;12.10;6.40;;;;;;;21.63;51.09;101685.50;5005241;28;118639;-85
2022/07/19 03:30:29;;;;;;;9.27;6.28;;;;;;;21.62;50.95;101681.06;4983513;28;121626;-87
2022/07/19 03:32:56;;;;;;;9.07;6.07;;;;;;;21.61;50.91;101679.38;4974721;28;124474;-86
2022/07/19 03:35:24;;;;;;;8.85;5.97;;;;;;;21.60;50.76;101685.72;4985245;28;120267;-86
2022/07/19 03:37:51;;;;;;;7.93;5.93;;;;;;;21.55;50.85;101678.88;4975175;28;119501;-85
2022/07/19 03:40:18;;;;;;;8.27;5.85;;;;;;;21.53;50.83;101679.94;4989442;28;122613;-86
2022/07/19 03:42:45;;;;;;;9.13;5.90;;;;;;;21.49;51.02;101684.75;4983851;28;124567;-86
2022/07/19 03:45:12;;;;;;;10.00;6.05;;;;;;;21.48;50.92;101683.00;4994068;28;119951;-86
2022/07/19 03:47:39;;;;;;;8.98;6.03;;;;;;;21.46;51.13;101679.59;4976427;28;118496;-87
2022/07/19 03:50:07;;;;;;;10.38;6.03;;;;;;;21.44;51.05;101686.94;4960034;28;122336;-87
2022/07/19 03:52:34;;;;;;;10.95;6.55;;;;;;;21.43;51.28;101685.16;4983785;28;123723;-86
2022/07/19 03:55:01;;;;;;;10.43;6.47;;;;;;;21.42;51.19;101688.84;4988932;28;118446;-85
2022/07/19 03:57:28;;;;;;;9.10;6.28;;;;;;;21.41;51.22;101687.13;4994922;28;117229;-87
2022/07/19 03:59:55;;;;;;;12.07;6.75;;;;;;;21.38;51.24;101687.38;4986408;28;123235;-85
2022/07/19 04:02:23;;;;;;;13.15;6.68;;;;;;;21.37;51.25;101696.44;4986648;28;124134;-86
2022/07/19 04:04:50;;;;;;;16.33;6.65;;;;;;;21.34;51.24;101696.66;4972071;28;119070;-87
2022/07/19 04:07:17;;;;;;;14.88;7.20;;;;;;;21.32;51.48;101698.59;4997714;28;118594;-86
2022/07/19 04:09:44;;;;;;;17.75;6.70;;;;;;;21.32;51.51;101704.00;4984013;28;123313;-87
2022/07/19 04:12:11;;;;;;;11.73;6.70;;;;;;;21.30;51.70;101689.78;4985640;28;122261;-85
2022/07/19 04:14:38;;;;;;;15.85;6.95;;;;;;;21.29;51.44;101698.88;5002477;28;117718;-86
2022/07/19 04:17:07;;;;;;;17.80;7.70;;;;;;;21.29;51.56;101693.47;4982157;28;119045;-86
2022/07/19 04:19:35;;;;;;;9.10;7.05;;;;;;;21.30;51.69;101695.19;4986431;28;123519;-85
2022/07/19 04:22:02;;;;;;;13.55;6.45;;;;;;;21.30;51.59;101698.72;4972409;28;123510;-85
2022/07/19 04:24:29;;;;;;;10.07;6.68;;;;;;;21.31;52.00;101702.31;4974754;28;121841;-85
2022/07/19 04:26:57;;;;;;;17.45;7.28;;;;;;;21.34;51.97;101707.44;4982062;28;119335;-86
2022/07/19 04:29:24;;;;;;;12.35;6.75;;;;;;;21.36;52.04;101709.06;4985413;28;123590;-85
2022/07/19 04:31:51;;;;;;;17.40;7.55;;;;;;;21.38;52.00;101703.56;4996878;28;123451;-86
2022/07/19 04:34:18;;;;;;;12.05;6.80;;;;;;;21.39;51.95;101699.88;4964553;28;118690;-85
2022/07/19 04:36:45;;;;;;;12.80;7.50;;;;;;;21.40;51.92;101698.91;4988214;28;118386;-86
2022/07/19 04:39:12;;;;;;;11.95;6.80;;;;;;;21.39;52.23;101700.72;4972576;28;123743;-85
2022/07/19 04:41:40;;;;;;;12.65;7.55;;;;;;;21.40;52.32;101701.59;5006837;28;123619;-85
2022/07/19 04:44:07;;;;;;;15.48;7.45;;;;;;;21.42;52.49;101705.03;4980313;28;119497;-85
2022/07/19 04:46:34;;;;;;;13.00;7.65;;;;;;;21.43;52.56;101695.94;4987874;28;117458;-86
2022/07/19 04:49:01;;;;;;;11.75;7.38;;;;;;;21.45;52.46;101694.03;4976034;28;125017;-86
2022/07/19 04:51:28;;;;;;;10.68;6.63;;;;;;;21.49;52.39;101700.03;4976069;28;122816;-85
2022/07/19 04:53:55;;;;;;;16.27;7.00;;;;;;;21.58;52.46;101694.78;4997369;28;118312;-85
2022/07/19 04:56:23;;;;;;;9.05;6.40;;;;;;;21.67;52.61;101697.75;4979970;28;118380;-85
2022/07/19 04:58:51;;;;;;;10.48;6.90;;;;;;;21.81;52.79;101694.81;4985562;28;123171;-86
2022/07/19 05:01:18;;;;;;;12.32;6.50;;;;;;;21.93;52.49;101693.84;4969546;28;123037;-85
2022/07/19 05:03:45;;;;;;;8.90;6.43;;;;;;;22.06;52.43;101692.88;4962084;28;117787;-86
2022/07/19 05:06:12;;;;;;;9.63;6.47;;;;;;;22.18;52.25;101689.19;4970979;28;118453;-86
2022/07/19 05:08:40;;;;;;;9.10;6.68;;;;;;;22.30;51.86;101680.13;4988977;28;123498;-85
2022/07/19 05:11:07;;;;;;;8.40;6.47;;;;;;;22.42;51.63;101682.81;4962628;28;122758;-85
2022/07/19 05:13:34;;;;;;;10.93;7.25;;;;;;;22.51;51.24;101692.84;4987155;28;120173;-86
2022/07/19 05:16:01;;;;;;;15.63;6.85;;;;;;;22.61;51.25;101691.09;4985418;28;120247;-86
2022/07/19 05:18:28;;;;;;;11.10;6.65;;;;;;;22.72;51.08;101691.06;4960736;28;123207;-86
2022/07/19 05:20:55;;;;;;;16.05;6.88;;;;;;;22.82;50.71;101695.69;4999195;28;123966;-85
2022/07/19 05:23:22;;;;;;;10.18;6.55;;;;;;;22.91;50.50;101694.94;4971988;28;118812;-85
2022/07/19 05:25:49;;;;;;;10.27;6.78;;;;;;;23.00;50.51;101694.16;4963167;28;118152;-85
2022/07/19 05:28:17;;;;;;;11.07;6.55;;;;;;;23.09;50.07;101698.81;4970387;28;124450;-85
2022/07/19 05:30:44;;;;;;;9.43;7.00;;;;;;;23.18;50.15;101701.72;5004246;28;123742;-85
2022/07/19 05:33:11;;;;;;;8.98;6.55;;;;;;;23.28;50.01;101697.22;4982274;28;118900;-85
2022/07/19 05:35:38;;;;;;;13.82;6.88;;;;;;;23.36;49.79;101694.75;5003619;28;117992;-80
2022/07/19 05:38:05;;;;;;;14.60;6.72;;;;;;;23.45;49.63;101693.97;5002963;28;122532;-80
2022/07/19 05:40:35;;;;;;;9.75;6.65;;;;;;;23.55;49.60;101695.88;5006326;28;125027;-79
2022/07/19 05:43:03;;;;;;;9.93;6.80;;;;;;;23.63;49.45;101696.91;5002928;28;118274;-79
2022/07/19 05:45:30;;;;;;;11.65;6.70;;;;;;;23.73;49.58;101691.53;5005957;28;118880;-79
2022/07/19 05:47:57;;;;;;;11.75;6.78;;;;;;;23.82;49.63;101695.31;4998391;28;124941;-79
2022/07/19 05:50:24;;;;;;;7.97;6.95;;;;;;;23.90;49.45;101682.84;5003371;28;124315;-79
2022/07/19 05:52:51;;;;;;;11.75;6.90;;;;;;;24.01;49.59;101691.84;5005223;28;120232;-79
2022/07/19 05:55:18;;;;;;;11.15;7.22;;;;;;;24.11;49.37;101695.47;5005871;28;118823;-79
2022/07/19 05:57:45;;;;;;;10.88;7.13;;;;;;;24.23;49.27;101699.75;4987828;28;123249;-79
2022/07/19 06:00:14;;;;;;;13.85;7.47;;;;;;;24.35;49.56;101696.94;4998230;28;123388;-79
2022/07/19 06:02:41;;;;;;;12.15;7.18;;;;;;;24.47;49.33;101694.00;4983720;28;119388;-79
2022/07/19 06:05:09;;;;;;;12.48;6.75;;;;;;;24.60;49.06;101699.19;4987534;28;120005;-79
2022/07/19 06:07:36;;;;;;;18.33;7.38;;;;;;;24.72;49.09;101699.06;5005397;28;124698;-79
2022/07/19 06:10:04;;;;;;;29.92;7.97;;;;;;;24.83;48.83;101701.63;4997392;28;124452;-79
2022/07/19 06:12:31;;;;;;;25.15;8.30;;;;;;;24.95;48.74;101705.91;5005638;28;118376;-79
2022/07/19 06:14:58;;;;;;;12.48;7.43;;;;;;;25.05;48.43;101705.91;5004972;28;119130;-79
2022/07/19 06:17:25;;;;;;;10.52;7.80;;;;;;;25.14;48.26;101704.19;4986812;28;124718;-79
2022/07/19 06:19:52;;;;;;;10.35;7.32;;;;;;;25.25;47.78;101690.53;5004180;28;125055;-79
2022/07/19 06:22:19;;;;;;;11.68;7.55;;;;;;;25.36;47.62;101703.94;5003228;28;120053;-79
2022/07/19 06:24:47;;;;;;;11.05;7.72;;;;;;;25.45;47.58;101697.63;4983389;28;118750;-79
2022/07/19 06:27:14;;;;;;;11.57;8.18;;;;;;;25.59;47.05;101698.16;5001727;28;123843;-79
2022/07/19 06:29:41;;;;;;;10.35;7.20;;;;;;;25.68;46.46;101691.03;5005110;28;122649;-79
2022/07/19 06:32:08;;;;;;;8.98;6.78;;;;;;;25.78;46.20;101702.69;5005621;28;117405;-79
2022/07/19 06:34:35;;;;;;;11.27;7.32;;;;;;;25.91;46.16;101705.06;4988601;28;118127;-80
2022/07/19 06:37:02;;;;;;;14.18;7.22;;;;;;;26.01;46.04;101698.66;4989391;28;123054;-80
2022/07/19 06:39:29;;;;;;;10.65;7.50;;;;;;;26.15;45.61;101699.16;5003947;28;123769;-80
2022/07/19 06:41:56;;;;;;;11.13;7.57;;;;;;;26.30;45.49;101702.22;5008337;28;117901;-80
2022/07/19 06:44:25;;;;;;;10.10;7.53;;;;;;;26.46;45.91;101696.09;4983003;28;119788;-80
2022/07/19 06:46:52;;;;;;;13.77;8.05;;;;;;;26.61;45.42;101700.88;5007356;28;123880;-80
2022/07/19 06:49:21;;;;;;;15.13;9.27;;;;;;;26.76;45.43;101692.22;4990215;28;122755;-80
2022/07/19 06:51:48;;;;;;;12.60;8.93;;;;;;;26.91;45.22;101696.09;5002519;28;121057;-79
2022/07/19 06:54:15;;;;;;;14.82;10.10;;;;;;;27.08;44.29;101698.97;4985522;28;120160;-80
2022/07/19 06:56:43;;;;;;;13.25;9.32;;;;;;;27.23;44.27;101694.66;4990666;28;124215;-79
2022/07/19 06:59:10;;;;;;;15.70;10.10;;;;;;;27.37;44.39;101702.31;5003585;28;123336;-80
2022/07/19 07:01:38;;;;;;;15.73;10.55;;;;;;;27.53;43.97;101695.28;5007581;28;119198;-80
2022/07/19 07:04:05;;;;;;;14.15;9.15;;;;;;;27.69;44.00;101695.38;4971590;28;119189;-80
2022/07/19 07:06:32;;;;;;;14.93;10.13;;;;;;;27.86;43.86;101690.00;4974099;28;123540;-80
2022/07/19 07:09:01;;;;;;;12.07;8.77;;;;;;;28.03;43.77;101686.41;5008438;28;123741;-80
2022/07/19 07:11:28;;;;;;;15.15;8.38;;;;;;;28.20;43.47;101691.91;5005856;28;120789;-80
2022/07/19 07:13:56;;;;;;;11.57;7.40;;;;;;;28.37;43.21;101693.69;5002409;28;118398;-80
2022/07/19 07:16:23;;;;;;;11.77;8.35;;;;;;;28.54;43.17;101700.91;4990822;28;123899;-80
2022/07/19 07:18:50;;;;;;;14.55;8.02;;;;;;;28.71;42.76;101695.50;4990908;28;123748;-79
2022/07/19 07:21:17;;;;;;;9.57;7.40;;;;;;;28.89;42.74;101698.06;5007930;28;118993;-79
2022/07/19 07:23:44;;;;;;;10.75;7.30;;;;;;;29.06;42.46;101698.94;4986528;28;117834;-79
2022/07/19 07:26:11;;;;;;;11.00;6.70;;;;;;;29.23;41.93;101695.19;5003062;28;123014;-80
2022/07/19 07:28:39;;;;;;;12.48;6.03;;;;;;;29.41;41.54;101691.44;5007470;28;123295;-80
2022/07/19 07:31:06;;;;;;;8.10;5.72;;;;;;;29.58;40.83;101693.13;4995042;28;118653;-80
2022/07/19 07:33:33;;;;;;;9.70;5.80;;;;;;;29.76;40.35;101689.34;5006969;28;117832;-79
2022/07/19 07:36:00;;;;;;;7.93;5.40;;;;;;;29.89;40.16;101689.63;5009358;28;124017;-80
2022/07/19 07:38:28;;;;;;;10.95;5.43;;;;;;;30.02;39.70;101684.47;4998659;28;122885;-80
2022/07/19 07:40:56;;;;;;;8.85;5.28;;;;;;;30.20;39.87;101686.13;4995762;28;119094;-80
2022/07/19 07:43:43;;;;;;;9.02;5.10;;;;;;;30.36;39.98;101683.31;4993239;28;119669;-80
2022/07/19 07:46:10;;;;;;;10.23;5.20;;;;;;;30.52;39.09;101678.81;4990004;28;123102;-81
2022/07/19 07:48:37;;;;;;;9.98;5.43;;;;;;;30.64;38.71;101677.34;5000575;28;124239;-80
2022/07/19 07:51:05;;;;;;;9.00;4.97;;;;;;;30.77;38.73;101672.13;5007214;28;119815;-80
2022/07/19 07:53:52;;;;;;;8.50;4.97;;;;;;;30.95;38.58;101676.44;4977483;28;119172;-81
2022/07/19 07:56:19;;;;;;;10.80;4.68;;;;;;;31.12;38.69;101675.28;5005137;28;124019;-80
2022/07/19 07:58:47;;;;;;;8.02;4.82;;;;;;;31.29;37.87;101664.16;5013230;28;124465;-80
2022/07/19 08:01:15;;;;;;;10.68;5.15;;;;;;;31.43;37.67;101671.56;5015324;28;118646;-81
2022/07/19 08:03:43;;;;;;;10.35;4.65;;;;;;;31.56;37.09;101665.47;4978680;28;118103;-81
2022/07/19 08:06:10;;;;;;;10.77;4.80;;;;;;;31.68;37.08;101663.13;4986940;28;123133;-80
2022/07/19 08:08:38;;;;;;;8.57;4.70;;;;;;;31.80;37.06;101656.13;5003160;28;123041;-80
2022/07/19 08:11:05;;;;;;;9.48;5.00;;;;;;;31.92;37.65;101657.34;4993771;28;119962;-83
2022/07/19 08:13:33;;;;;;;13.10;5.13;;;;;;;32.08;37.33;101653.59;5013153;28;116843;-82
2022/07/19 08:16:00;;;;;;;7.55;4.93;;;;;;;32.24;36.64;101657.97;4980137;28;123466;-82
2022/07/19 08:18:27;;;;;;;8.15;4.20;;;;;;;32.37;36.42;101655.38;4995127;28;122078;-82
2022/07/19 08:21:00;;;;;;;7.72;4.38;;;;;;;32.50;36.31;101651.94;4989253;28;119192;-82
2022/07/19 08:23:27;;;;;;;8.52;4.60;;;;;;;32.60;35.95;101651.66;5011656;28;117769;-83
2022/07/19 08:25:54;;;;;;;8.02;4.32;;;;;;;32.71;35.57;101659.38;5010701;28;124726;-83
2022/07/19 08:28:21;;;;;;;7.50;4.80;;;;;;;32.81;35.46;101660.94;4992830;28;122887;-83
2022/07/19 08:30:48;;;;;;;14.30;5.30;;;;;;;32.90;35.40;101668.81;5011091;28;120709;-83
2022/07/19 08:33:37;;;;;;;7.82;4.25;;;;;;;33.01;35.72;101664.72;5006946;28;119740;-83
2022/07/19 08:36:04;;;;;;;8.85;4.60;;;;;;;33.12;35.13;101655.97;4986000;28;124044;-83
2022/07/19 08:38:31;;;;;;;8.93;4.60;;;;;;;33.22;35.43;101657.50;4991278;28;123968;-83
2022/07/19 08:40:59;;;;;;;10.85;4.70;;;;;;;33.35;34.77;101649.38;5007181;28;118474;-83
2022/07/19 08:43:26;;;;;;;12.45;3.85;;;;;;;33.46;34.81;101657.06;5009422;28;117518;-82
2022/07/19 08:45:54;;;;;;;7.57;4.05;;;;;;;33.57;34.36;101652.91;5010248;28;123378;-82
2022/07/19 08:48:22;;;;;;;10.23;4.32;;;;;;;33.67;33.97;101660.81;5010692;28;123452;-82
2022/07/19 08:50:50;;;;;;;7.85;4.00;;;;;;;33.73;33.43;101647.09;5009849;28;118137;-82
2022/07/19 08:53:18;;;;;;;9.25;4.05;;;;;;;33.83;33.16;101641.25;5012490;28;117717;-82
2022/07/19 08:55:45;;;;;;;7.13;4.20;;;;;;;33.92;32.97;101645.50;4985591;28;122958;-82
2022/07/19 08:58:12;;;;;;;7.35;3.65;;;;;;;34.00;32.82;101640.88;5005350;28;123090;-82
2022/07/19 09:00:40;;;;;;;11.07;4.07;;;;;;;34.09;33.13;101639.63;4992079;28;117886;-82
2022/07/19 09:03:08;;;;;;;7.78;3.83;;;;;;;34.21;33.14;101632.53;4989566;28;117914;-82
2022/07/19 09:05:35;;;;;;;8.50;4.25;;;;;;;34.33;32.33;101636.34;4975652;28;124128;-82
2022/07/19 09:08:08;;;;;;;9.35;3.70;;;;;;;34.48;32.57;101632.59;4988062;28;123091;-82
2022/07/19 09:10:38;;;;;;;7.90;3.67;;;;;;;34.62;32.31;101634.31;4994379;28;119004;-82
2022/07/19 09:13:14;;;;;;;7.05;3.72;;;;;;;34.77;31.97;101630.53;4989747;28;118383;-82
2022/07/19 09:15:54;;;;;;;8.70;4.10;;;;;;;34.86;31.56;101629.28;4982487;28;123842;-82
2022/07/19 09:18:24;;;;;;;6.03;3.40;;;;;;;34.93;31.89;101629.28;4991874;28;123295;-82
2022/07/19 09:20:57;;;;;;;6.90;3.45;;;;;;;34.99;31.64;101629.25;4993156;28;120695;-82
2022/07/19 09:23:25;;;;;;;8.60;4.10;;;;;;;35.05;31.63;101622.06;5007899;28;120210;-81
2022/07/19 09:25:57;;;;;;;9.15;3.80;;;;;;;35.08;31.62;101621.66;4992734;28;124244;-82
2022/07/19 09:28:27;;;;;;;5.75;4.00;;;;;;;35.11;31.74;101615.69;4988523;28;122019;-82
2022/07/19 09:30:56;;;;;;;8.10;4.07;;;;;;;35.16;31.85;101617.81;5003047;28;119458;-82
2022/07/19 09:33:26;;;;;;;7.30;3.70;;;;;;;35.21;31.56;101620.81;5010338;28;119128;-82
2022/07/19 09:35:56;;;;;;;6.53;3.58;;;;;;;35.30;31.87;101614.00;4974293;28;122683;-82
2022/07/19 09:38:27;;;;;;;6.15;3.70;;;;;;;35.42;31.84;101612.28;5003273;28;123174;-82
2022/07/19 09:41:09;;;;;;;6.47;3.10;;;;;;;35.54;32.06;101603.34;4988083;28;118850;-82
2022/07/19 09:43:56;;;;;;;10.07;3.60;;;;;;;35.66;31.55;101601.63;4973234;28;119590;-82
2022/07/19 09:46:28;;;;;;;7.38;3.45;;;;;;;35.80;30.86;101608.78;4993458;28;97951;-82
2022/07/19 09:49:13;;;;;;;7.78;3.35;;;;;;;35.90;30.60;101601.97;4993621;28;123273;-82
2022/07/19 09:51:43;;;;;;;7.43;3.30;;;;;;;35.98;30.29;101599.81;5008113;28;118662;-82
2022/07/19 09:54:17;;;;;;;8.63;3.67;;;;;;;36.08;30.21;101604.84;5006255;28;119909;-82
2022/07/19 09:56:46;;;;;;;5.72;3.08;;;;;;;36.18;29.77;101605.25;4988847;28;123974;-82
2022/07/19 09:59:13;;;;;;;6.50;3.10;;;;;;;36.25;29.25;101611.56;4998439;28;123451;-82
2022/07/19 10:01:42;;;;;;;8.25;3.30;;;;;;;36.35;28.76;101605.56;4993810;28;119326;-82
2022/07/19 10:04:13;;;;;;;5.30;3.05;;;;;;;36.46;28.17;101601.25;4995139;28;118433;-83
2022/07/19 10:06:42;;;;;;;4.85;3.03;;;;;;;36.54;28.73;101609.25;4984106;28;125629;-82
2022/07/19 10:09:11;;;;;;;7.75;3.00;;;;;;;36.65;28.12;101602.16;4999024;28;122543;-82
2022/07/19 10:11:39;;;;;;;6.53;2.97;;;;;;;36.75;27.84;101609.97;4998690;28;120036;-82
2022/07/19 10:14:07;;;;;;;6.18;3.00;;;;;;;36.86;27.86;101600.94;4985430;28;120969;-82
2022/07/19 10:16:53;;;;;;;5.20;2.85;;;;;;;36.97;27.57;101600.22;5010950;28;123000;-82
2022/07/19 10:19:43;;;;;;;7.90;3.20;;;;;;;37.09;27.39;101593.94;4970705;28;122275;-82
2022/07/19 10:22:12;;;;;;;6.75;2.58;;;;;;;37.14;26.92;101594.13;4995470;28;119144;-82
2022/07/19 10:24:53;;;;;;;5.68;2.90;;;;;;;37.20;27.65;101591.31;5014055;28;120037;-83
2022/07/19 10:27:26;;;;;;;6.35;3.00;;;;;;;37.30;26.67;101590.78;4984339;28;123851;-82
2022/07/19 10:30:20;;;;;;;6.97;2.70;;;;;;;37.40;27.52;101585.56;4993189;28;124009;-82
2022/07/19 10:32:50;;;;;;;5.40;2.70;;;;;;;37.54;26.92;101579.88;4980167;28;117659;-81
2022/07/19 10:35:27;;;;;;;6.00;3.15;;;;;;;37.66;26.87;101580.81;4990660;28;119815;-82
2022/07/19 10:38:07;;;;;;;6.60;3.33;;;;;;;37.78;26.34;101578.94;4990540;28;122246;-82
2022/07/19 10:40:42;;;;;;;4.97;3.03;;;;;;;37.85;26.43;101575.28;4995573;28;123032;-82
2022/07/19 10:43:11;;;;;;;8.73;3.10;;;;;;;37.91;26.29;101574.31;4974906;28;118448;-82
2022/07/19 10:45:41;;;;;;;8.20;2.65;;;;;;;38.01;25.87;101574.59;4985142;28;117812;-82
2022/07/19 10:48:14;;;;;;;5.15;2.97;;;;;;;38.12;25.13;101571.06;4979477;28;123043;-82
2022/07/19 10:50:47;;;;;;;4.15;2.58;;;;;;;38.17;24.59;101568.44;4980630;28;121788;-82
2022/07/19 10:53:39;;;;;;;6.15;2.75;;;;;;;38.23;25.12;101557.50;5006983;28;118697;-82
2022/07/19 10:56:25;;;;;;;5.18;2.90;;;;;;;38.33;25.30;101561.41;4990049;28;117197;-82
2022/07/19 10:59:00;;;;;;;7.60;3.15;;;;;;;38.47;24.60;101556.47;4992786;28;124257;-83
2022/07/19 11:01:30;;;;;;;7.20;3.00;;;;;;;38.58;24.66;101559.50;4986059;28;124165;-83
2022/07/19 11:04:28;;;;;;;6.72;3.00;;;;;;;38.67;24.52;101560.84;4995995;28;119706;-81
2022/07/19 11:07:18;;;;;;;9.00;3.20;;;;;;;38.77;24.74;101555.56;4977689;28;120000;-82
2022/07/19 11:09:56;;;;;;;5.78;3.10;;;;;;;38.89;25.53;101556.41;5028640;28;122617;-81
2022/07/19 11:12:24;;;;;;;7.75;2.97;;;;;;;39.04;24.46;101555.13;5032675;28;124888;-80
2022/07/19 11:14:52;;;;;;;4.70;2.65;;;;;;;39.11;23.57;101544.75;5012827;28;118131;-81
2022/07/19 11:17:39;;;;;;;6.35;2.50;;;;;;;39.11;22.98;101540.03;5016110;28;117237;-81
2022/07/19 11:20:08;;;;;;;6.20;2.80;;;;;;;39.15;23.06;101540.41;5010702;28;122415;-82
2022/07/19 11:22:38;;;;;;;4.75;2.75;;;;;;;39.19;22.97;101532.44;5007569;28;123941;-82
2022/07/19 11:25:07;;;;;;;6.15;2.75;;;;;;;39.24;22.71;101532.53;5006062;28;117433;-81